createdAt,value
2019-05-07T00:01:51.562Z,74.14
2019-05-07T00:04:22.441Z,74.23
2019-05-07T00:06:52.766Z,74.24
2019-05-07T00:09:23.272Z,74.02
2019-05-07T00:11:53.473Z,74.31
2019-05-07T00:14:23.913Z,74.46
2019-05-07T00:16:53.742Z,75.09
2019-05-07T00:19:23.818Z,75.17
2019-05-07T00:21:53.627Z,74.82
2019-05-07T00:24:23.055Z,75.59
2019-05-07T00:26:53.337Z,75.89
2019-05-07T00:29:22.891Z,75.88
2019-05-07T00:31:52.609Z,76.35
2019-05-07T00:34:24.166Z,76.64
2019-05-07T00:36:55.243Z,77.15
2019-05-07T00:39:26.654Z,77.34
2019-05-07T00:41:56.101Z,77.28
2019-05-07T00:44:25.996Z,77.39
2019-05-07T00:46:55.696Z,77.14
2019-05-07T00:49:27.038Z,77.15
2019-05-07T00:51:56.488Z,76.45
2019-05-07T00:54:26.238Z,77.25
2019-05-07T00:56:55.962Z,76.88
2019-05-07T00:59:25.657Z,76.66
2019-05-07T01:01:55.365Z,77.10
2019-05-07T01:04:24.844Z,77.28
2019-05-07T01:06:54.576Z,77.69
2019-05-07T01:09:24.004Z,78.01
2019-05-07T01:11:53.687Z,78.19
2019-05-07T01:14:23.399Z,77.93
2019-05-07T01:16:53.134Z,78.86
2019-05-07T01:19:22.830Z,78.38
2019-05-07T01:21:52.657Z,78.39
2019-05-07T01:24:23.277Z,78.37
2019-05-07T01:26:53.278Z,78.23
2019-05-07T01:29:22.988Z,77.99
2019-05-07T01:31:57.083Z,78.57
2019-05-07T01:34:33.831Z,78.41
2019-05-07T01:37:05.143Z,78.32
2019-05-07T01:39:34.938Z,78.88
2019-05-07T01:42:04.358Z,79.08
2019-05-07T01:44:34.149Z,79.04
2019-05-07T01:47:06.241Z,79.34
2019-05-07T01:49:35.928Z,78.67
2019-05-07T01:52:05.727Z,78.95
2019-05-07T01:54:35.437Z,79.28
2019-05-07T01:57:04.860Z,78.74
2019-05-07T01:59:34.363Z,78.53
2019-05-07T02:02:08.564Z,78.44
2019-05-07T02:04:39.917Z,78.00
2019-05-07T02:07:14.233Z,77.99
2019-05-07T02:09:48.331Z,77.82
2019-05-07T02:12:19.687Z,78.57
2019-05-07T02:14:49.118Z,79.15
2019-05-07T02:17:18.549Z,78.79
2019-05-07T02:19:47.985Z,78.70
2019-05-07T02:22:17.697Z,78.37
2019-05-07T02:24:47.408Z,78.25
2019-05-07T02:27:17.727Z,77.96
2019-05-07T02:29:47.440Z,78.71
2019-05-07T02:32:17.105Z,78.99
2019-05-07T02:34:46.542Z,79.10
2019-05-07T02:37:17.903Z,78.73
2019-05-07T02:39:48.980Z,78.57
2019-05-07T02:42:18.425Z,79.08
2019-05-07T02:45:04.239Z,79.08
2019-05-07T02:47:34.027Z,79.40
2019-05-07T02:50:13.105Z,78.80
2019-05-07T02:53:03.915Z,78.67
2019-05-07T02:55:33.857Z,78.76
2019-05-07T02:58:03.837Z,79.61
2019-05-07T03:00:33.810Z,79.39
2019-05-07T03:03:04.368Z,78.97
2019-05-07T03:05:34.945Z,79.35
2019-05-07T03:08:04.856Z,79.55
2019-05-07T03:10:34.540Z,79.96
2019-05-07T03:13:04.521Z,79.72
2019-05-07T03:15:34.485Z,79.35
2019-05-07T03:18:04.657Z,79.76
2019-05-07T03:20:48.140Z,80.04
2019-05-07T03:23:19.209Z,79.72
2019-05-07T03:25:48.411Z,79.50
2019-05-07T03:28:19.028Z,79.45
2019-05-07T03:30:56.212Z,79.94
2019-05-07T03:33:26.323Z,79.89
2019-05-07T03:35:59.770Z,79.74
2019-05-07T03:38:29.454Z,79.67
2019-05-07T03:40:58.885Z,79.78
2019-05-07T03:43:28.571Z,79.90
2019-05-07T03:46:03.885Z,80.57
2019-05-07T03:48:35.158Z,80.84
2019-05-07T03:51:04.984Z,80.34
2019-05-07T03:53:34.656Z,80.11
2019-05-07T03:56:04.573Z,80.04
2019-05-07T03:58:34.448Z,80.54
2019-05-07T04:01:04.656Z,80.01
2019-05-07T04:03:34.799Z,79.88
2019-05-07T04:06:04.857Z,79.63
2019-05-07T04:08:34.291Z,80.04
2019-05-07T04:11:04.174Z,80.15
2019-05-07T04:13:34.028Z,79.90
2019-05-07T04:16:04.538Z,79.64
2019-05-07T04:18:34.373Z,79.72
2019-05-07T04:21:04.226Z,79.74
2019-05-07T04:23:34.561Z,79.57
2019-05-07T04:26:06.111Z,79.48
2019-05-07T04:28:37.190Z,79.74
2019-05-07T04:31:06.617Z,79.59
2019-05-07T04:33:37.691Z,79.42
2019-05-07T04:36:08.762Z,79.70
2019-05-07T04:38:38.452Z,80.07
2019-05-07T04:41:07.879Z,79.86
2019-05-07T04:43:37.302Z,79.96
2019-05-07T04:46:06.746Z,80.35
2019-05-07T04:48:36.167Z,80.03
2019-05-07T04:51:07.502Z,79.87
2019-05-07T04:53:37.169Z,79.80
2019-05-07T04:56:06.608Z,79.67
2019-05-07T04:58:36.037Z,79.88
2019-05-07T05:01:07.125Z,79.55
2019-05-07T05:03:39.200Z,79.04
2019-05-07T05:06:07.704Z,78.89
2019-05-07T05:08:37.130Z,78.83
2019-05-07T05:11:06.566Z,78.93
2019-05-07T05:13:36.020Z,79.25
2019-05-07T05:16:24.942Z,79.06
2019-05-07T05:18:55.568Z,79.17
2019-05-07T05:21:38.778Z,78.63
2019-05-07T05:24:28.003Z,78.74
2019-05-07T05:26:57.441Z,77.98
2019-05-07T05:29:26.866Z,77.78
2019-05-07T05:31:56.301Z,77.98
2019-05-07T05:34:26.010Z,78.13
2019-05-07T05:36:55.444Z,77.80
2019-05-07T05:39:24.869Z,77.59
2019-05-07T05:41:55.949Z,77.70
2019-05-07T05:44:27.305Z,77.03
2019-05-07T05:46:57.015Z,77.09
2019-05-07T05:49:26.722Z,76.72
2019-05-07T05:52:02.053Z,77.02
2019-05-07T05:54:39.090Z,76.56
2019-05-07T05:57:16.184Z,76.09
2019-05-07T05:59:55.484Z,75.53
2019-05-07T06:02:24.898Z,75.27
2019-05-07T06:05:12.636Z,75.09
2019-05-07T06:07:43.998Z,74.81
2019-05-07T06:10:32.997Z,74.87
2019-05-07T06:13:04.199Z,74.26
2019-05-07T06:15:52.275Z,73.90
2019-05-07T06:18:41.741Z,73.84
2019-05-07T06:21:13.381Z,73.45
2019-05-07T06:23:47.111Z,72.96
2019-05-07T06:26:16.533Z,72.57
2019-05-07T06:28:45.963Z,72.73
2019-05-07T06:31:15.646Z,72.36
2019-05-07T06:33:45.084Z,71.95
2019-05-07T06:36:14.514Z,72.10
2019-05-07T06:38:45.586Z,71.71
2019-05-07T06:41:16.720Z,71.50
2019-05-07T06:43:48.105Z,71.49
2019-05-07T06:46:17.532Z,70.87
2019-05-07T06:48:47.275Z,70.92
2019-05-07T06:51:17.705Z,70.72
2019-05-07T06:53:47.265Z,70.59
2019-05-07T06:56:17.015Z,70.80
2019-05-07T06:59:06.096Z,70.56
2019-05-07T07:01:43.166Z,70.29
2019-05-07T07:04:14.251Z,70.06
2019-05-07T07:06:46.110Z,70.01
2019-05-07T07:09:29.510Z,69.83
2019-05-07T07:12:09.351Z,69.62
2019-05-07T07:14:39.059Z,69.05
2019-05-07T07:17:09.686Z,68.90
2019-05-07T07:19:39.400Z,68.73
2019-05-07T07:22:08.829Z,68.40
2019-05-07T07:24:38.271Z,68.38
2019-05-07T07:27:07.771Z,67.95
2019-05-07T07:29:44.922Z,67.64
2019-05-07T07:32:14.815Z,67.22
2019-05-07T07:34:46.249Z,66.99
2019-05-07T07:37:18.130Z,67.12
2019-05-07T07:39:47.921Z,67.15
2019-05-07T07:42:17.630Z,67.02
2019-05-07T07:44:48.972Z,66.45
2019-05-07T07:47:18.687Z,66.87
2019-05-07T07:49:48.127Z,66.82
2019-05-07T07:52:17.556Z,66.36
2019-05-07T07:54:46.994Z,66.40
2019-05-07T07:57:18.070Z,66.71
2019-05-07T07:59:49.160Z,66.63
2019-05-07T08:02:25.671Z,66.71
2019-05-07T08:04:55.459Z,66.41
2019-05-07T08:07:24.893Z,66.08
2019-05-07T08:09:54.591Z,66.27
2019-05-07T08:12:24.019Z,66.40
2019-05-07T08:14:53.545Z,66.23
2019-05-07T08:17:22.974Z,66.21
2019-05-07T08:19:52.492Z,66.12
2019-05-07T08:22:22.756Z,66.22
2019-05-07T08:24:52.247Z,66.05
2019-05-07T08:27:22.368Z,65.91
2019-05-07T08:29:52.566Z,65.87
2019-05-07T08:32:23.788Z,65.70
2019-05-07T08:35:03.545Z,65.34
2019-05-07T08:37:32.982Z,65.48
2019-05-07T08:40:03.041Z,65.47
2019-05-07T08:42:32.766Z,65.39
2019-05-07T08:45:06.537Z,65.03
2019-05-07T08:47:52.785Z,64.46
2019-05-07T08:50:22.310Z,64.27
2019-05-07T08:52:52.176Z,64.57
2019-05-07T08:55:21.990Z,63.51
2019-05-07T08:57:52.501Z,61.88
2019-05-07T09:00:24.095Z,62.27
2019-05-07T09:02:53.792Z,59.61
2019-05-07T09:05:23.503Z,59.95
2019-05-07T09:07:53.210Z,59.22
2019-05-07T09:10:22.628Z,55.86
2019-05-07T09:12:52.686Z,57.17
2019-05-07T09:15:22.729Z,57.24
2019-05-07T09:17:52.758Z,56.05
2019-05-07T09:20:22.927Z,56.16
2019-05-07T09:22:52.789Z,56.04
2019-05-07T09:25:22.404Z,55.54
2019-05-07T09:27:53.546Z,55.44
2019-05-07T09:30:42.043Z,53.47
2019-05-07T09:33:13.433Z,53.17
2019-05-07T09:35:44.784Z,52.82
2019-05-07T09:38:14.215Z,51.58
2019-05-07T09:40:43.657Z,51.75
2019-05-07T09:43:13.096Z,51.64
2019-05-07T09:45:42.901Z,51.01
2019-05-07T09:48:12.608Z,45.17
2019-05-07T09:50:43.816Z,42.89
2019-05-07T09:53:13.315Z,40.92
2019-05-07T09:55:42.774Z,40.24
2019-05-07T09:58:12.711Z,41.37
2019-05-07T10:00:42.659Z,41.01
2019-05-07T10:03:13.415Z,37.32
2019-05-07T10:05:43.229Z,35.32
2019-05-07T10:08:13.177Z,39.23
2019-05-07T10:10:45.200Z,40.32
2019-05-07T10:13:24.819Z,38.81
2019-05-07T10:15:54.563Z,39.96
2019-05-07T10:18:24.319Z,38.56
2019-05-07T10:20:55.208Z,38.17
2019-05-07T10:23:25.243Z,37.36
2019-05-07T10:25:56.367Z,37.13
2019-05-07T10:28:26.152Z,37.82
2019-05-07T10:30:55.858Z,38.99
2019-05-07T10:33:25.714Z,39.64
2019-05-07T10:35:55.221Z,37.38
2019-05-07T10:38:25.018Z,37.10
2019-05-07T10:40:54.456Z,36.10
2019-05-07T10:43:23.904Z,38.31
2019-05-07T10:45:55.764Z,38.17
2019-05-07T10:48:32.029Z,35.37
2019-05-07T10:51:03.299Z,37.11
2019-05-07T10:53:32.735Z,37.83
2019-05-07T10:56:02.759Z,38.26
2019-05-07T10:58:32.431Z,36.36
2019-05-07T11:01:02.914Z,35.85
2019-05-07T11:03:32.967Z,37.18
2019-05-07T11:06:02.399Z,37.19
2019-05-07T11:08:32.944Z,35.62
2019-05-07T11:11:03.070Z,35.03
2019-05-07T11:13:32.795Z,36.54
2019-05-07T11:16:11.763Z,37.34
2019-05-07T11:18:48.934Z,35.69
2019-05-07T11:21:22.151Z,38.20
2019-05-07T11:23:52.207Z,36.50
2019-05-07T11:26:22.185Z,31.54
2019-05-07T11:28:52.170Z,30.37
2019-05-07T11:31:22.393Z,28.29
2019-05-07T11:33:52.130Z,25.43
2019-05-07T11:36:21.996Z,24.53
2019-05-07T11:38:52.657Z,23.45
2019-05-07T11:41:23.860Z,25.64
2019-05-07T11:43:54.949Z,27.54
2019-05-07T11:46:26.270Z,27.92
2019-05-07T11:48:57.629Z,29.66
2019-05-07T11:51:33.447Z,31.87
2019-05-07T11:54:13.389Z,31.30
2019-05-07T11:56:43.138Z,33.06
2019-05-07T11:59:13.472Z,29.66
2019-05-07T12:01:47.906Z,31.32
2019-05-07T12:04:16.043Z,31.09
2019-05-07T12:06:45.766Z,29.38
2019-05-07T12:09:15.204Z,26.22
2019-05-07T12:11:44.971Z,26.28
2019-05-07T12:14:27.770Z,27.10
2019-05-07T12:16:45.891Z,27.41
2019-05-07T12:19:16.581Z,26.22
2019-05-07T12:21:46.460Z,25.19
2019-05-07T12:24:16.587Z,27.75
2019-05-07T12:26:46.506Z,29.53
2019-05-07T12:29:16.239Z,30.88
2019-05-07T12:31:47.311Z,30.64
2019-05-07T12:34:22.896Z,29.55
2019-05-07T12:36:52.820Z,30.13
2019-05-07T12:39:22.266Z,29.81
2019-05-07T12:41:52.494Z,27.64
2019-05-07T12:44:22.314Z,27.75
2019-05-07T12:46:52.478Z,28.31
2019-05-07T12:49:22.233Z,28.81
2019-05-07T12:51:53.637Z,28.67
2019-05-07T12:54:36.833Z,28.77
2019-05-07T12:57:06.343Z,29.41
2019-05-07T12:59:35.795Z,31.36
2019-05-07T13:02:26.690Z,30.48
2019-05-07T13:04:41.953Z,31.36
2019-05-07T13:07:15.745Z,31.25
2019-05-07T13:09:45.556Z,30.43
2019-05-07T13:12:14.992Z,30.75
2019-05-07T13:14:44.461Z,31.68
2019-05-07T13:17:13.907Z,30.26
2019-05-07T13:19:43.588Z,30.20
2019-05-07T13:22:13.190Z,31.77
2019-05-07T13:24:42.732Z,32.27
2019-05-07T13:27:12.498Z,32.11
2019-05-07T13:29:44.821Z,31.83
2019-05-07T13:32:16.135Z,33.27
2019-05-07T13:34:46.512Z,32.36
2019-05-07T13:37:27.253Z,33.00
2019-05-07T13:40:02.665Z,32.66
2019-05-07T13:42:52.270Z,32.96
2019-05-07T13:45:31.757Z,33.95
2019-05-07T13:48:19.643Z,33.76
2019-05-07T13:50:49.937Z,33.16
2019-05-07T13:53:19.448Z,32.67
2019-05-07T13:55:48.963Z,31.69
2019-05-07T13:58:18.399Z,33.02
2019-05-07T14:01:05.794Z,33.10
2019-05-07T14:03:35.224Z,31.23
2019-05-07T14:06:05.284Z,32.83
2019-05-07T14:08:36.493Z,32.26
2019-05-07T14:11:06.327Z,32.73
2019-05-07T14:13:35.999Z,31.55
2019-05-07T14:16:06.913Z,32.62
2019-05-07T14:18:39.032Z,32.03
2019-05-07T14:21:09.362Z,31.95
2019-05-07T14:23:38.807Z,32.84
2019-05-07T14:26:08.623Z,30.98
2019-05-07T14:28:38.058Z,31.52
2019-05-07T14:31:07.793Z,31.78
2019-05-07T14:33:39.138Z,32.19
2019-05-07T14:36:12.765Z,31.90
2019-05-07T14:38:43.849Z,31.75
2019-05-07T14:41:13.291Z,31.96
2019-05-07T14:43:44.447Z,31.48
2019-05-07T14:46:13.950Z,31.41
2019-05-07T14:48:43.975Z,32.48
2019-05-07T14:51:13.532Z,31.44
2019-05-07T14:53:43.247Z,32.36
2019-05-07T14:56:14.263Z,31.85
2019-05-07T14:58:44.307Z,31.86
2019-05-07T15:01:13.881Z,32.09
2019-05-07T15:03:43.329Z,31.35
2019-05-07T15:06:13.029Z,31.13
2019-05-07T15:08:42.956Z,30.86
2019-05-07T15:11:12.667Z,31.23
2019-05-07T15:13:42.883Z,31.12
2019-05-07T15:16:13.089Z,30.88
2019-05-07T15:18:53.890Z,31.31
2019-05-07T15:21:23.683Z,31.05
2019-05-07T15:23:55.030Z,30.43
2019-05-07T15:26:24.605Z,30.88
2019-05-07T15:28:55.835Z,31.78
2019-05-07T15:31:26.987Z,31.66
2019-05-07T15:33:56.737Z,32.38
2019-05-07T15:36:26.450Z,31.85
2019-05-07T15:38:56.137Z,32.39
2019-05-07T15:41:25.863Z,30.79
2019-05-07T15:43:55.550Z,30.38
2019-05-07T15:46:25.381Z,30.58
2019-05-07T15:48:55.091Z,31.66
2019-05-07T15:51:24.802Z,31.39
2019-05-07T15:53:55.882Z,29.82
2019-05-07T15:56:25.647Z,30.02
2019-05-07T15:58:55.359Z,29.42
2019-05-07T16:01:24.801Z,30.44
2019-05-07T16:03:55.200Z,29.93
2019-05-07T16:06:24.854Z,30.70
2019-05-07T16:08:55.939Z,30.16
2019-05-07T16:11:25.390Z,30.64
2019-05-07T16:14:03.366Z,31.05
2019-05-07T16:16:33.330Z,30.36
2019-05-07T16:19:13.568Z,29.81
2019-05-07T16:21:43.001Z,29.51
2019-05-07T16:24:12.442Z,30.81
2019-05-07T16:26:42.130Z,30.47
2019-05-07T16:29:13.339Z,30.47
2019-05-07T16:31:44.183Z,30.89
2019-05-07T16:34:13.815Z,30.71
2019-05-07T16:36:43.528Z,30.86
2019-05-07T16:39:13.245Z,30.77
2019-05-07T16:41:42.684Z,30.29
2019-05-07T16:44:12.472Z,30.41
2019-05-07T16:46:42.363Z,31.37
2019-05-07T16:49:12.320Z,31.19
2019-05-07T16:51:44.784Z,31.06
2019-05-07T16:54:13.256Z,30.79
2019-05-07T16:57:00.349Z,30.80
2019-05-07T16:59:32.432Z,31.12
2019-05-07T17:02:04.160Z,31.98
2019-05-07T17:04:33.981Z,32.04
2019-05-07T17:07:05.326Z,31.96
2019-05-07T17:09:35.515Z,31.20
2019-05-07T17:12:06.627Z,32.06
2019-05-07T17:14:36.076Z,31.88
2019-05-07T17:17:07.470Z,31.93
2019-05-07T17:19:37.248Z,32.58
2019-05-07T17:22:06.963Z,31.61
2019-05-07T17:24:36.412Z,32.37
2019-05-07T17:27:07.486Z,31.98
2019-05-07T17:29:36.928Z,32.07
2019-05-07T17:32:06.368Z,32.28
2019-05-07T17:34:36.060Z,32.81
2019-05-07T17:37:07.139Z,33.15
2019-05-07T17:39:36.580Z,33.43
2019-05-07T17:42:06.016Z,32.59
2019-05-07T17:44:35.772Z,32.61
2019-05-07T17:47:05.213Z,33.75
2019-05-07T17:49:36.496Z,34.33
2019-05-07T17:52:06.001Z,34.25
2019-05-07T17:54:35.454Z,34.80
2019-05-07T17:57:04.888Z,35.09
2019-05-07T17:59:34.644Z,35.07
2019-05-07T18:02:08.579Z,35.46
2019-05-07T18:04:50.546Z,35.31
2019-05-07T18:07:11.928Z,35.45
2019-05-07T18:09:42.442Z,36.15
2019-05-07T18:12:12.408Z,36.93
2019-05-07T18:14:42.504Z,37.44
2019-05-07T18:17:16.328Z,37.60
2019-05-07T18:19:46.245Z,37.95
2019-05-07T18:22:15.921Z,38.50
2019-05-07T18:24:45.367Z,38.84
2019-05-07T18:27:16.696Z,39.76
2019-05-07T18:29:46.411Z,40.31
2019-05-07T18:32:15.849Z,40.30
2019-05-07T18:34:45.291Z,40.49
2019-05-07T18:37:14.728Z,40.71
2019-05-07T18:39:44.534Z,40.99
2019-05-07T18:42:13.971Z,41.17
2019-05-07T18:44:43.740Z,41.41
2019-05-07T18:47:13.181Z,41.56
2019-05-07T18:49:44.732Z,42.09
2019-05-07T18:52:13.785Z,42.51
2019-05-07T18:54:43.228Z,43.06
2019-05-07T18:57:12.999Z,43.52
2019-05-07T18:59:42.436Z,43.94
2019-05-07T19:02:12.217Z,43.82
2019-05-07T19:04:42.242Z,44.15
2019-05-07T19:07:13.185Z,44.45
2019-05-07T19:09:42.842Z,44.87
2019-05-07T19:12:13.966Z,45.23
2019-05-07T19:14:43.356Z,45.55
2019-05-07T19:17:12.798Z,45.77
2019-05-07T19:19:42.236Z,45.81
2019-05-07T19:22:11.690Z,46.49
2019-05-07T19:24:47.257Z,47.22
2019-05-07T19:27:12.714Z,47.85
2019-05-07T19:29:45.665Z,48.09
2019-05-07T19:32:14.560Z,48.80
2019-05-07T19:34:44.269Z,48.75
2019-05-07T19:37:14.019Z,49.21
2019-05-07T19:39:43.508Z,49.10
2019-05-07T19:42:13.300Z,49.31
2019-05-07T19:44:42.737Z,49.47
2019-05-07T19:47:12.739Z,49.79
2019-05-07T19:49:42.300Z,50.45
2019-05-07T19:52:12.419Z,50.66
2019-05-07T19:54:44.358Z,51.10
2019-05-07T19:57:15.142Z,51.27
2019-05-07T19:59:44.845Z,50.76
2019-05-07T20:02:16.179Z,51.15
2019-05-07T20:04:45.620Z,52.08
2019-05-07T20:07:15.404Z,52.71
2019-05-07T20:09:44.834Z,52.53
2019-05-07T20:12:14.523Z,51.87
2019-05-07T20:14:43.960Z,51.50
2019-05-07T20:17:13.722Z,51.40
2019-05-07T20:19:43.168Z,52.12
2019-05-07T20:22:12.942Z,52.61
2019-05-07T20:24:42.382Z,53.01
2019-05-07T20:27:12.460Z,53.02
2019-05-07T20:29:42.845Z,53.63
2019-05-07T20:32:12.696Z,53.57
2019-05-07T20:34:42.310Z,53.34
2019-05-07T20:37:12.878Z,53.26
2019-05-07T20:39:42.730Z,52.54
2019-05-07T20:42:12.501Z,52.48
2019-05-07T20:44:42.585Z,52.47
2019-05-07T20:47:12.787Z,52.58
2019-05-07T20:49:42.876Z,52.99
2019-05-07T20:52:12.635Z,53.34
2019-05-07T20:54:43.717Z,53.11
2019-05-07T20:57:22.513Z,52.83
2019-05-07T20:59:52.297Z,52.47
2019-05-07T21:02:22.752Z,51.93
2019-05-07T21:04:52.649Z,51.82
2019-05-07T21:07:22.359Z,52.08
2019-05-07T21:09:52.976Z,51.97
2019-05-07T21:12:22.750Z,52.08
2019-05-07T21:14:52.657Z,52.16
2019-05-07T21:17:22.804Z,52.23
2019-05-07T21:19:52.736Z,52.37
2019-05-07T21:22:22.790Z,52.44
2019-05-07T21:24:53.174Z,52.84
2019-05-07T21:27:22.956Z,53.17
2019-05-07T21:29:52.847Z,53.10
2019-05-07T21:32:23.064Z,53.40
2019-05-07T21:34:53.038Z,52.83
2019-05-07T21:37:23.025Z,52.59
2019-05-07T21:39:53.260Z,52.59
2019-05-07T21:42:23.117Z,52.61
2019-05-07T21:44:53.005Z,52.88
2019-05-07T21:47:22.709Z,53.23
2019-05-07T21:49:54.920Z,53.68
2019-05-07T21:52:25.408Z,54.30
2019-05-07T21:54:56.483Z,54.77
2019-05-07T21:57:30.229Z,55.00
2019-05-07T22:00:13.542Z,55.25
2019-05-07T22:02:43.291Z,55.26
2019-05-07T22:05:12.859Z,55.04
2019-05-07T22:07:42.706Z,55.11
2019-05-07T22:10:12.758Z,54.76
2019-05-07T22:12:42.632Z,54.94
2019-05-07T22:15:14.853Z,54.97
2019-05-07T22:17:44.556Z,55.14
2019-05-07T22:20:14.128Z,54.94
2019-05-07T22:22:43.825Z,54.32
2019-05-07T22:25:13.268Z,54.03
2019-05-07T22:27:42.722Z,53.56
2019-05-07T22:30:14.387Z,54.11
2019-05-07T22:32:57.292Z,54.54
2019-05-07T22:35:28.651Z,54.76
2019-05-07T22:37:58.339Z,54.92
2019-05-07T22:40:27.777Z,54.10
2019-05-07T22:42:57.472Z,54.00
2019-05-07T22:45:26.924Z,54.41
2019-05-07T22:47:56.349Z,55.29
2019-05-07T22:50:25.805Z,55.89
2019-05-07T22:52:55.497Z,56.41
2019-05-07T22:55:25.196Z,56.57
2019-05-07T22:57:54.408Z,56.30
2019-05-07T23:00:42.719Z,55.99
2019-05-07T23:03:12.627Z,55.51
2019-05-07T23:05:42.252Z,55.06
2019-05-07T23:08:13.512Z,54.71
2019-05-07T23:10:44.580Z,54.42
2019-05-07T23:13:14.142Z,54.15
2019-05-07T23:15:43.597Z,53.77
2019-05-07T23:18:13.371Z,53.61
2019-05-07T23:20:43.302Z,53.52
2019-05-07T23:23:14.158Z,54.12
2019-05-07T23:25:44.031Z,54.21
2019-05-07T23:28:13.465Z,54.04
2019-05-07T23:30:44.324Z,53.66
2019-05-07T23:33:13.822Z,53.78
2019-05-07T23:35:43.266Z,53.99
2019-05-07T23:38:15.772Z,54.06
2019-05-07T23:40:44.226Z,54.29
2019-05-07T23:43:15.470Z,54.70
2019-05-07T23:45:45.195Z,55.11
2019-05-07T23:48:14.623Z,54.93
2019-05-07T23:50:44.074Z,54.70
2019-05-07T23:53:13.806Z,55.62
2019-05-07T23:55:43.251Z,56.35
2019-05-07T23:58:14.150Z,56.73
